Portland, ND (58274)

3:02 AM CDT on March 28, 2017 (GMT -0500)
Northwood | | Change Station
Active Advisory: Dense Fog Advisory

Elev 0 ft 47.73 °N, 97.57 °W | Updated 19 minutes ago

Mostly Cloudy
Mostly Cloudy
-1.8 °F
Feels Like -2 °F
N
0.6
Wind Variable Wind from NW
Gusts 1.2 mph

Today
High -- | Low -- °F
--% Chance of Precip.
Yesterday
High -- | Low -- °F
Precip. -- in
Pressure 30.16 in
Visibility 10.0 miles
Clouds Mostly Cloudy 6500 ft
Overcast 12000 ft
Windchill -2 °F
Dew Point -11 °F
Humidity 65%
Rainfall 0.00 in
Snow Depth Not available.
7:15 AM 7:54 PM
New Moon, 0% visible
METAR KRDR 280758Z AUTO 01010KT 10SM BKN065 OVC120 01/01 A3011 RMK AO2 RAE16 SLP211 P0001 T00120011
Pressure 30.16 in
Visibility 10.0 miles
Clouds Mostly Cloudy 6500 ft
Overcast 12000 ft
Windchill -2 °F
Dew Point -11 °F
Humidity 65%
Rainfall 0.00 in
Snow Depth Not available.
7:15 AM 7:54 PM
New Moon, 0% visible
METAR KRDR 280758Z AUTO 01010KT 10SM BKN065 OVC120 01/01 A3011 RMK AO2 RAE16 SLP211 P0001 T00120011

Get Your Daily Forecast Email!

Thanks for signing up!

Be on the lookout for a verification email in your inbox.

You'll start receiving severe weather alerts in your inbox..

×

10-Day Weather Forecast

Almanac

Astronomy

Mar. 28, 2017 Rise Set
Actual Time
Civil Twilight
Nautical Twilight
Astronomical Twilight
Moon
Length of Visible Light
Length of Day
Tomorrow will be .
, % of the Moon is Illuminated

Today's Extremes

State Highs State Lows

Community

WunderPhotos

Upload Photos

1,962,540 photos uploaded!

WunderBlog® & News

Nearby

Air Quality

  Air Quality AQ Index Pollutant
Not available.

Snow Depth

Station Depth Elevation

Earthquake Activity

City Distance Mag. Time & Date
Minimum magnitude displayed is 2.5.

Earthquake Activity

City Distance Mag. Time & Date
Minimum magnitude displayed is 2.5.

Coastal Water Temperatures

Place Temperature

Stations

Nearby Weather Stations

Station Location Temp. Windchill Dew Point Humidity Wind Precip. Elev Updated Type
                   

Watches & Warnings

Dense Fog Advisory
Issued: 2:52 AM CDT Mar. 28, 2017 – National Weather Service

... Dense fog advisory remains in effect until 10 am CDT this
morning...

* visibilities... less than one quarter mile.

* Impacts... limited visibilities will make travel very difficult.

Precautionary/preparedness actions...

A dense fog advisory means visibilities will frequently be
reduced to less than one quarter mile. If driving, slow down, use
your headlights, and leave plenty of distance ahead of you.